Time;durP1;ratioP1;P1;durP2;ratioP2;P2;SDS_P1;SDS_P2;PMS_P1;PMS_P2;Temp;Humidity;BMP_temperature;BMP_pressure;BME280_temperature;BME280_humidity;BME280_pressure;Samples;Min_cycle;Max_cycle;Signal;HPM_P1;HPM_P2
2022/07/21 00:01:45;;;;;;;16.50;3.55;;;17.00;99.90;;;;;;4999685;28;20029;-90
2022/07/21 00:04:11;;;;;;;11.05;3.10;;;17.00;99.90;;;;;;5000525;28;20095;-93
2022/07/21 00:06:37;;;;;;;14.68;3.42;;;17.00;99.90;;;;;;5012763;28;20034;-93
2022/07/21 00:09:03;;;;;;;13.13;3.72;;;17.00;99.90;;;;;;5008776;28;20034;-92
2022/07/21 00:11:28;;;;;;;13.43;2.80;;;17.00;99.90;;;;;;5012553;28;20045;-93
2022/07/21 00:13:54;;;;;;;13.32;4.00;;;17.00;99.90;;;;;;5017275;28;20085;-92
2022/07/21 00:16:20;;;;;;;13.40;3.22;;;17.00;99.90;;;;;;4999410;28;20032;-92
2022/07/21 00:18:46;;;;;;;12.20;3.40;;;17.00;99.90;;;;;;4999620;28;20022;-92
2022/07/21 00:21:12;;;;;;;25.02;3.78;;;17.00;99.90;;;;;;5000845;28;20049;-92
2022/07/21 00:23:39;;;;;;;11.13;4.55;;;17.00;99.90;;;;;;5013628;28;20117;-93
2022/07/21 00:26:05;;;;;;;11.27;3.67;;;17.00;99.90;;;;;;5014525;28;20172;-92
2022/07/21 00:28:30;;;;;;;11.77;4.05;;;17.00;99.90;;;;;;5023509;28;20468;-92
2022/07/21 00:30:56;;;;;;;11.98;4.15;;;17.00;99.90;;;;;;5017844;28;20032;-92
2022/07/21 00:33:22;;;;;;;10.57;3.40;;;17.00;99.90;;;;;;5017592;28;20033;-93
2022/07/21 00:35:47;;;;;;;15.80;5.63;;;17.00;99.90;;;;;;5000393;28;20104;-92
2022/07/21 00:38:13;;;;;;;29.65;8.85;;;17.00;99.90;;;;;;4999623;28;20540;-92
2022/07/21 00:40:39;;;;;;;18.70;7.20;;;17.00;99.90;;;;;;4999466;28;20022;-93
2022/07/21 00:43:05;;;;;;;10.93;3.58;;;16.90;99.90;;;;;;4999620;28;20500;-93
2022/07/21 00:45:30;;;;;;;16.40;4.72;;;16.90;99.90;;;;;;4998928;28;20386;-93
2022/07/21 00:47:56;;;;;;;13.30;5.68;;;16.90;99.90;;;;;;4999494;28;20036;-94
2022/07/21 00:50:23;;;;;;;13.52;5.60;;;16.90;99.90;;;;;;4999764;28;20049;-92
2022/07/21 00:52:49;;;;;;;13.80;5.28;;;16.90;99.90;;;;;;5007880;28;20022;-92
2022/07/21 00:55:20;;;;;;;15.18;4.50;;;16.90;99.90;;;;;;5030562;28;20026;-93
2022/07/21 00:57:47;;;;;;;12.73;4.72;;;16.90;99.90;;;;;;5014765;28;20022;-93
2022/07/21 01:00:25;;;;;;;16.58;5.03;;;16.90;99.90;;;;;;5034859;28;20018;-91
2022/07/21 01:02:51;;;;;;;10.45;4.90;;;16.90;99.90;;;;;;5021727;28;20037;-90
2022/07/21 01:05:18;;;;;;;13.98;5.55;;;16.90;99.90;;;;;;5037845;28;20037;-91
2022/07/21 01:07:47;;;;;;;15.18;5.82;;;16.90;99.90;;;;;;5026837;28;20065;-92
2022/07/21 01:10:14;;;;;;;26.10;9.07;;;16.90;99.90;;;;;;5014864;28;20102;-92
2022/07/21 01:12:41;;;;;;;12.38;4.50;;;16.90;99.90;;;;;;5015850;28;20026;-92
2022/07/21 01:15:09;;;;;;;12.38;5.30;;;16.80;99.90;;;;;;5015713;28;20017;-92
2022/07/21 01:17:35;;;;;;;13.30;5.18;;;16.80;99.90;;;;;;4998996;28;20045;-93
2022/07/21 01:20:07;;;;;;;15.80;5.28;;;16.80;99.90;;;;;;5016006;28;20022;-93
2022/07/21 01:22:35;;;;;;;11.32;4.47;;;16.80;99.90;;;;;;4998437;28;20395;-92
2022/07/21 01:25:00;;;;;;;16.08;3.95;;;16.70;99.90;;;;;;5014585;28;20614;-93
2022/07/21 01:27:27;;;;;;;8.60;3.67;;;16.70;99.90;;;;;;5016097;28;20070;-93
2022/07/21 01:29:54;;;;;;;10.60;3.67;;;16.70;99.90;;;;;;5014806;28;20331;-92
2022/07/21 01:32:20;;;;;;;14.40;4.13;;;16.70;99.90;;;;;;5014459;28;20076;-92
2022/07/21 01:34:47;;;;;;;15.13;3.53;;;16.70;99.90;;;;;;5014241;28;20056;-92
2022/07/21 01:37:14;;;;;;;12.23;3.80;;;16.70;99.90;;;;;;4998478;28;20022;-92
2022/07/21 01:42:24;;;;;;;13.07;4.03;;;16.60;99.90;;;;;;5017721;28;20084;-92
2022/07/21 01:44:50;;;;;;;11.65;3.55;;;16.60;99.90;;;;;;5000666;28;20037;-92
2022/07/21 01:47:17;;;;;;;11.38;3.72;;;16.60;99.90;;;;;;5020128;28;20022;-92
2022/07/21 01:49:44;;;;;;;10.80;2.83;;;16.60;99.90;;;;;;4999767;28;20041;-93
2022/07/21 01:52:10;;;;;;;10.93;3.80;;;16.50;99.90;;;;;;4997241;28;20029;-92
2022/07/21 01:54:36;;;;;;;13.82;3.97;;;16.50;99.90;;;;;;4997126;28;20029;-92
2022/07/21 01:57:03;;;;;;;15.68;4.40;;;16.50;99.90;;;;;;4997284;28;20145;-92
2022/07/21 01:59:29;;;;;;;7.95;3.45;;;16.50;99.90;;;;;;5014804;28;20545;-92
2022/07/21 02:01:54;;;;;;;16.63;4.22;;;16.40;99.90;;;;;;5014876;28;20034;-92
2022/07/21 02:04:21;;;;;;;14.38;3.85;;;16.40;99.90;;;;;;5015400;28;20084;-93
2022/07/21 02:06:47;;;;;;;7.03;3.33;;;16.40;99.90;;;;;;5016529;28;20030;-93
2022/07/21 02:09:12;;;;;;;12.73;3.88;;;16.40;99.90;;;;;;5011608;28;20101;-91
2022/07/21 02:11:38;;;;;;;12.02;3.95;;;16.30;99.90;;;;;;5029030;28;20099;-92
2022/07/21 02:14:04;;;;;;;11.60;4.35;;;16.30;99.90;;;;;;5022407;28;20399;-90
2022/07/21 02:16:30;;;;;;;9.80;4.00;;;16.30;99.90;;;;;;5014234;28;20032;-92
2022/07/21 02:18:56;;;;;;;8.73;3.58;;;16.30;99.90;;;;;;5015163;28;20103;-93
2022/07/21 02:21:23;;;;;;;9.52;3.95;;;16.20;99.90;;;;;;5013664;28;20452;-91
2022/07/21 02:23:48;;;;;;;12.43;3.55;;;16.20;99.90;;;;;;5013634;28;20412;-91
2022/07/21 02:26:14;;;;;;;7.93;3.40;;;16.20;99.90;;;;;;5014131;28;20113;-92
2022/07/21 02:28:40;;;;;;;10.93;3.47;;;16.20;99.90;;;;;;5015425;28;20030;-92
2022/07/21 02:31:07;;;;;;;11.02;3.38;;;16.20;99.90;;;;;;5013569;28;20022;-91
2022/07/21 02:33:33;;;;;;;8.57;3.40;;;16.30;99.90;;;;;;5013482;28;20026;-93
2022/07/21 02:35:59;;;;;;;6.78;3.60;;;16.30;99.90;;;;;;4997185;28;20018;-92
2022/07/21 02:38:24;;;;;;;8.95;3.53;;;16.30;99.90;;;;;;5014623;28;20041;-92
2022/07/21 02:40:50;;;;;;;6.40;3.33;;;16.30;99.90;;;;;;5014875;28;20152;-91
2022/07/21 02:43:16;;;;;;;8.80;3.30;;;16.30;99.90;;;;;;4997708;28;20033;-93
2022/07/21 02:45:43;;;;;;;9.20;3.60;;;16.30;99.90;;;;;;5013678;28;20030;-93
2022/07/21 02:48:12;;;;;;;8.88;3.17;;;16.30;99.90;;;;;;4997402;28;20113;-93
2022/07/21 02:50:40;;;;;;;6.85;3.33;;;16.30;99.90;;;;;;4997192;28;20033;-93
2022/07/21 02:53:08;;;;;;;7.05;3.15;;;16.30;99.90;;;;;;5013296;28;20493;-93
2022/07/21 02:55:35;;;;;;;8.68;2.90;;;16.30;99.90;;;;;;5013738;28;20030;-92
2022/07/21 02:58:22;;;;;;;7.50;3.10;;;16.20;99.90;;;;;;5012893;28;20018;-92
2022/07/21 03:00:59;;;;;;;10.75;3.08;;;16.30;99.90;;;;;;5013199;28;20026;-93
2022/07/21 03:03:28;;;;;;;9.50;3.08;;;16.20;99.90;;;;;;5013101;28;20041;-93
2022/07/21 03:05:54;;;;;;;7.25;2.75;;;16.20;99.90;;;;;;5013300;28;20114;-92
2022/07/21 03:08:21;;;;;;;7.72;2.80;;;16.20;99.90;;;;;;5014466;28;20125;-93
2022/07/21 03:10:47;;;;;;;9.45;3.08;;;16.20;99.90;;;;;;5012783;28;20048;-93
2022/07/21 03:13:13;;;;;;;5.20;2.70;;;16.10;99.90;;;;;;4998905;28;20065;-93
2022/07/21 03:15:39;;;;;;;7.35;2.75;;;16.10;99.90;;;;;;5017846;28;20060;-92
2022/07/21 03:18:06;;;;;;;5.57;2.10;;;16.10;99.90;;;;;;5000079;28;20037;-93
2022/07/21 03:20:34;;;;;;;6.25;2.50;;;16.10;99.90;;;;;;5020722;28;20030;-93
2022/07/21 03:23:00;;;;;;;4.50;1.92;;;16.10;99.90;;;;;;5021693;28;20029;-94
2022/07/21 03:25:26;;;;;;;5.63;2.33;;;16.00;99.90;;;;;;5005232;28;20096;-93
2022/07/21 03:27:52;;;;;;;3.67;2.22;;;16.10;99.90;;;;;;5022584;28;20085;-93
2022/07/21 03:30:18;;;;;;;6.15;1.83;;;16.00;99.90;;;;;;5015931;28;20037;-94
2022/07/21 03:32:45;;;;;;;2.80;1.80;;;16.00;99.90;;;;;;5031628;28;20021;-91
2022/07/21 03:35:12;;;;;;;5.10;2.35;;;16.00;99.90;;;;;;5019002;28;20125;-93
2022/07/21 03:37:46;;;;;;;3.20;1.80;;;15.90;99.90;;;;;;5018439;28;20018;-91
2022/07/21 03:40:13;;;;;;;3.97;2.17;;;15.80;99.90;;;;;;5023438;28;20033;-87
2022/07/21 03:42:39;;;;;;;4.07;1.95;;;15.80;99.90;;;;;;5040663;28;20022;-90
2022/07/21 03:45:06;;;;;;;3.20;2.03;;;15.80;99.90;;;;;;5023332;28;20037;-91
2022/07/21 03:47:32;;;;;;;5.18;1.60;;;15.70;99.90;;;;;;5023184;28;20078;-90
2022/07/21 03:49:58;;;;;;;2.00;1.40;;;15.70;99.90;;;;;;5038669;28;20029;-90
2022/07/21 03:52:23;;;;;;;2.63;1.90;;;15.70;99.90;;;;;;5034470;28;20030;-92
2022/07/21 03:54:49;;;;;;;2.53;1.80;;;15.60;99.90;;;;;;5015680;28;20391;-91
2022/07/21 03:57:15;;;;;;;3.75;2.13;;;15.60;99.90;;;;;;5012079;28;20060;-93
2022/07/21 03:59:40;;;;;;;4.05;1.77;;;15.60;99.90;;;;;;5007306;28;20036;-91
2022/07/21 04:02:06;;;;;;;1.88;1.65;;;15.60;99.90;;;;;;5023304;28;20513;-94
2022/07/21 04:04:32;;;;;;;3.53;1.80;;;15.60;99.90;;;;;;5025045;28;20033;-93
2022/07/21 04:06:59;;;;;;;3.05;1.90;;;15.60;99.90;;;;;;5006814;28;20040;-95
2022/07/21 04:09:24;;;;;;;3.22;1.50;;;15.50;99.90;;;;;;5020373;28;20036;-95
2022/07/21 04:11:50;;;;;;;3.60;1.35;;;15.50;99.90;;;;;;5002766;28;20125;-95
2022/07/21 04:14:17;;;;;;;3.65;1.50;;;15.50;99.90;;;;;;5005021;28;20026;-95
2022/07/21 04:16:44;;;;;;;1.80;1.33;;;15.50;99.90;;;;;;5033818;28;20030;-93
2022/07/21 04:19:09;;;;;;;3.20;1.40;;;15.50;99.90;;;;;;5020245;28;20045;-93
2022/07/21 04:21:36;;;;;;;3.28;1.50;;;15.40;99.90;;;;;;5020714;28;20021;-91
2022/07/21 04:24:04;;;;;;;5.05;1.40;;;15.40;99.90;;;;;;5011910;28;20377;-95
2022/07/21 04:26:29;;;;;;;1.92;1.38;;;15.40;99.90;;;;;;5002658;28;20022;-95
2022/07/21 04:28:55;;;;;;;2.30;1.40;;;15.40;99.90;;;;;;5001423;28;20040;-93
2022/07/21 04:31:21;;;;;;;2.53;1.10;;;15.40;99.90;;;;;;5000680;28;20037;-94
2022/07/21 04:33:47;;;;;;;1.40;1.08;;;15.40;99.90;;;;;;5019389;28;20026;-95
2022/07/21 04:36:14;;;;;;;1.65;1.23;;;15.30;99.90;;;;;;5018769;28;20083;-93
2022/07/21 04:38:41;;;;;;;3.55;2.03;;;15.40;99.90;;;;;;5000478;28;20487;-94
2022/07/21 04:41:07;;;;;;;3.33;1.20;;;15.30;99.90;;;;;;4984173;28;20068;-94
2022/07/21 04:43:33;;;;;;;1.08;0.98;;;15.40;99.90;;;;;;5017823;28;20381;-94
2022/07/21 04:45:59;;;;;;;4.53;1.40;;;15.40;99.90;;;;;;5017753;28;20024;-94
2022/07/21 04:48:28;;;;;;;2.85;1.13;;;15.40;99.90;;;;;;5000288;28;20033;-94
2022/07/21 04:50:54;;;;;;;3.05;1.10;;;15.40;99.90;;;;;;5000201;28;20026;-94
2022/07/21 04:53:20;;;;;;;1.42;1.10;;;15.40;99.90;;;;;;5000142;28;20434;-93
2022/07/21 04:55:49;;;;;;;2.13;1.08;;;15.40;99.90;;;;;;5017286;28;20090;-93
2022/07/21 04:58:15;;;;;;;4.03;1.10;;;15.40;99.90;;;;;;5016343;28;20038;-95
2022/07/21 05:00:41;;;;;;;1.80;1.13;;;15.40;99.90;;;;;;5000195;28;20029;-94
2022/07/21 05:03:07;;;;;;;1.92;1.05;;;15.40;99.90;;;;;;4999437;28;20125;-94
2022/07/21 05:05:33;;;;;;;2.22;0.90;;;15.40;99.90;;;;;;4999969;28;20025;-95
2022/07/21 05:07:58;;;;;;;3.72;1.52;;;15.40;99.90;;;;;;5017357;28;20026;-94
2022/07/21 05:10:24;;;;;;;4.70;1.67;;;15.50;99.90;;;;;;5024487;28;20693;-94
2022/07/21 05:12:50;;;;;;;5.97;2.47;;;15.40;99.90;;;;;;5037305;28;20061;-94
2022/07/21 05:15:17;;;;;;;3.50;1.83;;;15.40;99.90;;;;;;5037251;28;20060;-94
2022/07/21 05:17:43;;;;;;;5.57;2.13;;;15.40;99.90;;;;;;5020462;28;20029;-95
2022/07/21 05:20:11;;;;;;;4.20;1.80;;;15.40;99.90;;;;;;5045982;28;20025;-94
2022/07/21 05:22:37;;;;;;;4.25;1.83;;;15.40;99.90;;;;;;5057765;28;20025;-93
2022/07/21 05:25:04;;;;;;;5.40;2.17;;;15.50;99.90;;;;;;5057656;28;20032;-94
2022/07/21 05:27:29;;;;;;;9.77;3.85;;;15.50;99.90;;;;;;5057764;28;20035;-94
2022/07/21 05:29:55;;;;;;;14.93;5.90;;;15.50;99.90;;;;;;5041339;28;20037;-94
2022/07/21 05:32:21;;;;;;;26.02;10.07;;;15.40;99.90;;;;;;5058350;28;20033;-94
2022/07/21 05:34:47;;;;;;;23.23;9.70;;;15.50;99.90;;;;;;5058009;28;20033;-93
2022/07/21 05:37:13;;;;;;;31.58;13.13;;;15.50;99.90;;;;;;5045556;28;20057;-94
2022/07/21 05:39:39;;;;;;;26.92;10.93;;;15.50;99.90;;;;;;5040991;28;20025;-95
2022/07/21 05:42:05;;;;;;;24.48;9.48;;;15.40;99.90;;;;;;5039122;28;20033;-93
2022/07/21 05:44:31;;;;;;;25.35;9.13;;;15.50;99.90;;;;;;5037087;28;20060;-93
2022/07/21 05:46:57;;;;;;;25.58;10.93;;;15.50;99.90;;;;;;5036521;28;20372;-94
2022/07/21 05:49:23;;;;;;;20.10;10.20;;;15.50;99.90;;;;;;5035518;28;20021;-93
2022/07/21 05:51:49;;;;;;;25.13;11.20;;;15.50;99.90;;;;;;5036670;28;20104;-93
2022/07/21 05:54:15;;;;;;;30.95;11.48;;;15.50;99.90;;;;;;5035144;28;20025;-94
2022/07/21 05:56:41;;;;;;;30.67;10.93;;;15.50;99.90;;;;;;5035184;28;20021;-92
2022/07/21 05:59:07;;;;;;;22.15;8.98;;;15.50;99.90;;;;;;5036525;28;20508;-92
2022/07/21 06:01:33;;;;;;;23.60;8.93;;;15.50;99.90;;;;;;5035577;28;20104;-94
2022/07/21 06:03:58;;;;;;;22.65;8.38;;;15.50;99.90;;;;;;5019981;28;20061;-94
2022/07/21 06:06:24;;;;;;;27.75;10.32;;;15.50;99.90;;;;;;5036621;28;20047;-93
2022/07/21 06:08:51;;;;;;;25.08;10.80;;;15.50;99.90;;;;;;5038980;28;20093;-92
2022/07/21 06:11:19;;;;;;;30.50;12.25;;;15.50;99.90;;;;;;5011858;28;20054;-93
2022/07/21 06:13:45;;;;;;;40.65;13.20;;;15.60;99.90;;;;;;5047678;28;20048;-93
2022/07/21 06:16:11;;;;;;;42.15;14.23;;;15.60;99.90;;;;;;5039227;28;20121;-92
2022/07/21 06:18:37;;;;;;;32.03;12.02;;;15.60;99.90;;;;;;5039223;28;20064;-91
2022/07/21 06:21:03;;;;;;;27.75;10.57;;;15.60;99.90;;;;;;5040061;28;20328;-92
2022/07/21 06:23:30;;;;;;;27.42;11.02;;;15.60;99.90;;;;;;5037393;28;20057;-92
2022/07/21 06:25:56;;;;;;;24.58;10.23;;;15.60;99.90;;;;;;5017947;28;20021;-91
2022/07/21 06:28:22;;;;;;;34.50;10.32;;;15.60;99.90;;;;;;5034352;28;20031;-93
2022/07/21 06:30:49;;;;;;;28.77;10.88;;;15.60;99.90;;;;;;5036922;28;20029;-93
2022/07/21 06:33:18;;;;;;;23.67;9.50;;;15.60;99.90;;;;;;5034376;28;20053;-93
2022/07/21 06:35:44;;;;;;;28.65;10.43;;;15.50;99.90;;;;;;5033976;28;20041;-92
2022/07/21 06:38:12;;;;;;;30.83;9.93;;;15.50;99.90;;;;;;5035222;28;20026;-91
2022/07/21 06:40:40;;;;;;;28.90;9.85;;;15.60;99.90;;;;;;5033782;28;20037;-91
2022/07/21 06:43:09;;;;;;;25.35;10.38;;;15.60;99.90;;;;;;5033853;28;20032;-90
2022/07/21 06:45:34;;;;;;;29.52;10.90;;;15.60;99.90;;;;;;5017430;28;20021;-91
2022/07/21 06:48:02;;;;;;;20.58;8.48;;;15.50;99.90;;;;;;5036697;28;20045;-93
2022/07/21 06:50:28;;;;;;;19.98;8.32;;;15.50;99.90;;;;;;5034068;28;20017;-94
2022/07/21 06:52:54;;;;;;;21.90;8.02;;;15.50;99.90;;;;;;5017707;28;20041;-93
2022/07/21 06:55:20;;;;;;;22.35;8.30;;;15.50;99.90;;;;;;5038680;28;20079;-93
2022/07/21 06:57:45;;;;;;;20.92;8.13;;;15.50;99.90;;;;;;5050278;28;20006;-95
2022/07/21 07:00:12;;;;;;;19.13;8.20;;;15.50;99.90;;;;;;5039055;28;20021;-94
2022/07/21 07:02:37;;;;;;;21.95;8.75;;;15.50;99.90;;;;;;5041353;28;20030;-95
2022/07/21 07:05:04;;;;;;;23.42;10.20;;;15.50;99.90;;;;;;5040849;28;20033;-94
2022/07/21 07:07:37;;;;;;;23.75;9.75;;;15.50;99.90;;;;;;5040467;28;20475;-94
2022/07/21 07:10:04;;;;;;;27.25;9.07;;;15.50;99.90;;;;;;5035052;28;20269;-94
2022/07/21 07:12:29;;;;;;;16.13;6.90;;;15.50;99.90;;;;;;5001872;28;20022;-92
2022/07/21 07:14:55;;;;;;;23.17;9.43;;;15.50;99.90;;;;;;5002654;28;20113;-92
2022/07/21 07:17:21;;;;;;;16.20;7.05;;;15.60;99.90;;;;;;5002737;28;20467;-92
2022/07/21 07:19:48;;;;;;;10.25;4.35;;;15.50;99.90;;;;;;5001459;28;20120;-94
2022/07/21 07:22:14;;;;;;;13.40;4.72;;;15.50;99.90;;;;;;4984762;28;20026;-93
2022/07/21 07:24:40;;;;;;;12.25;4.80;;;15.50;99.90;;;;;;5001545;28;20034;-94
2022/07/21 07:27:06;;;;;;;9.98;3.67;;;15.50;99.90;;;;;;5001161;28;20502;-92
2022/07/21 07:29:32;;;;;;;6.55;3.08;;;15.50;99.90;;;;;;5001092;28;20065;-94
2022/07/21 07:31:59;;;;;;;5.43;2.42;;;15.60;99.90;;;;;;5001616;28;20029;-93
2022/07/21 07:34:25;;;;;;;5.43;2.35;;;15.60;99.90;;;;;;5002019;28;20041;-93
2022/07/21 07:36:50;;;;;;;6.80;3.05;;;15.80;99.90;;;;;;5017462;28;20030;-95
2022/07/21 07:39:16;;;;;;;14.52;4.22;;;15.90;99.90;;;;;;5001422;28;20026;-93
2022/07/21 07:41:43;;;;;;;11.45;4.45;;;16.00;99.90;;;;;;5000541;28;20116;-92
2022/07/21 07:44:11;;;;;;;9.38;4.47;;;16.20;99.90;;;;;;5000409;28;20040;-91
2022/07/21 07:46:38;;;;;;;16.00;6.60;;;16.20;99.90;;;;;;5000479;28;20030;-91
2022/07/21 07:49:05;;;;;;;22.35;8.38;;;16.30;99.90;;;;;;5000494;28;20037;-92
2022/07/21 07:51:31;;;;;;;23.35;9.40;;;16.40;99.90;;;;;;5020035;28;20463;-94
2022/07/21 07:53:57;;;;;;;27.55;10.43;;;16.40;99.90;;;;;;5000750;28;20125;-93
2022/07/21 07:56:23;;;;;;;28.27;10.45;;;16.50;99.90;;;;;;5000546;28;20079;-95
2022/07/21 07:58:48;;;;;;;27.83;10.32;;;16.50;99.90;;;;;;5018156;28;20060;-94
2022/07/21 08:01:16;;;;;;;31.10;10.70;;;16.60;99.90;;;;;;4999739;28;20026;-93
2022/07/21 08:03:41;;;;;;;22.58;8.00;;;16.70;99.90;;;;;;4999962;28;20109;-92
2022/07/21 08:06:07;;;;;;;14.10;5.40;;;16.80;99.90;;;;;;5015990;28;20028;-95
2022/07/21 08:08:33;;;;;;;7.47;4.15;;;16.90;99.90;;;;;;5000225;28;20037;-93
2022/07/21 08:10:59;;;;;;;8.90;3.72;;;17.00;99.90;;;;;;5012837;28;20044;-93
2022/07/21 08:13:25;;;;;;;7.28;2.72;;;17.00;99.90;;;;;;5020631;28;20565;-95
2022/07/21 08:15:51;;;;;;;7.70;2.92;;;17.10;99.90;;;;;;5017369;28;20046;-94
2022/07/21 08:18:18;;;;;;;3.13;1.90;;;17.20;99.90;;;;;;5015988;28;20030;-94
2022/07/21 08:20:45;;;;;;;1.77;1.40;;;17.20;99.90;;;;;;5016253;28;20018;-95
2022/07/21 08:23:11;;;;;;;3.28;1.77;;;17.20;99.90;;;;;;5016599;28;20064;-93
2022/07/21 08:25:38;;;;;;;3.08;1.30;;;17.20;99.90;;;;;;5016851;28;20505;-95
2022/07/21 08:28:04;;;;;;;4.53;1.77;;;17.20;99.90;;;;;;5017439;28;20022;-94
2022/07/21 08:30:30;;;;;;;3.33;1.60;;;17.20;99.90;;;;;;5016691;28;20033;-94
2022/07/21 08:32:56;;;;;;;4.18;1.90;;;17.20;99.90;;;;;;5024441;28;20029;-94
2022/07/21 08:35:22;;;;;;;4.63;1.88;;;17.30;99.90;;;;;;5031855;28;20010;-90
2022/07/21 08:38:02;;;;;;;5.10;1.50;;;17.30;99.90;;;;;;5022148;28;20061;-91
2022/07/21 08:40:33;;;;;;;2.60;1.67;;;17.30;99.90;;;;;;5031305;28;20025;-95
2022/07/21 08:43:01;;;;;;;3.28;1.60;;;17.40;99.90;;;;;;5002289;28;20038;-94
2022/07/21 08:45:27;;;;;;;3.72;1.85;;;17.40;99.90;;;;;;5019842;28;20026;-93
2022/07/21 08:47:55;;;;;;;4.20;1.65;;;17.40;99.90;;;;;;5023012;28;20109;-95
2022/07/21 08:50:31;;;;;;;5.88;3.10;;;17.50;99.90;;;;;;5021836;28;20104;-93
2022/07/21 08:52:58;;;;;;;3.85;1.73;;;17.50;99.90;;;;;;5023886;28;20026;-96
2022/07/21 08:55:24;;;;;;;3.45;1.10;;;17.50;99.90;;;;;;5025325;28;20104;-95
2022/07/21 08:57:50;;;;;;;1.40;1.10;;;17.60;99.90;;;;;;5022790;28;20068;-94
2022/07/21 09:00:18;;;;;;;4.03;1.20;;;17.70;99.90;;;;;;5020919;28;20025;-94
2022/07/21 09:02:44;;;;;;;2.35;1.50;;;17.60;99.90;;;;;;5019036;28;20466;-94
2022/07/21 09:05:11;;;;;;;5.80;1.52;;;17.60;99.90;;;;;;5017817;28;20038;-91
2022/07/21 09:07:57;;;;;;;2.95;1.52;;;17.60;99.90;;;;;;5015150;28;20053;-95
2022/07/21 09:10:26;;;;;;;2.28;1.40;;;17.70;99.90;;;;;;5015157;28;20052;-94
2022/07/21 09:12:57;;;;;;;2.15;1.40;;;17.80;99.90;;;;;;5014793;28;20069;-92
2022/07/21 09:15:25;;;;;;;1.35;1.25;;;17.90;99.90;;;;;;5015264;28;20037;-94
2022/07/21 09:18:07;;;;;;;2.38;1.60;;;18.00;99.90;;;;;;4998558;28;20064;-91
2022/07/21 09:20:33;;;;;;;4.18;1.60;;;18.10;99.90;;;;;;5015000;28;20072;-93
2022/07/21 09:23:05;;;;;;;2.90;1.40;;;18.10;99.90;;;;;;5014914;28;20034;-91
2022/07/21 09:25:41;;;;;;;2.58;1.80;;;18.10;99.90;;;;;;5015062;28;20064;-92
2022/07/21 09:28:28;;;;;;;3.92;2.05;;;18.30;99.90;;;;;;4998384;28;20018;-93
2022/07/21 09:31:10;;;;;;;7.65;3.63;;;18.30;99.90;;;;;;4997023;28;20563;-94
2022/07/21 09:33:39;;;;;;;12.75;5.20;;;18.30;99.90;;;;;;5015251;28;20459;-93
2022/07/21 09:36:10;;;;;;;14.98;6.50;;;18.40;99.90;;;;;;5013872;28;20041;-94
2022/07/21 09:38:43;;;;;;;10.70;4.35;;;18.40;99.90;;;;;;4997395;28;20084;-94
2022/07/21 09:41:14;;;;;;;14.57;7.15;;;18.40;99.90;;;;;;4998252;28;20022;-93
2022/07/21 09:43:45;;;;;;;21.48;8.65;;;18.40;99.90;;;;;;5017048;28;20101;-95
2022/07/21 09:46:29;;;;;;;18.63;7.22;;;18.50;99.90;;;;;;5015361;28;20479;-95
2022/07/21 09:48:58;;;;;;;23.58;10.43;;;18.50;99.90;;;;;;5014541;28;20029;-94
2022/07/21 09:51:43;;;;;;;24.17;9.00;;;18.60;99.90;;;;;;5019115;28;20052;-95
2022/07/21 09:54:11;;;;;;;25.25;8.98;;;18.60;99.90;;;;;;5000465;28;20038;-95
2022/07/21 09:56:48;;;;;;;19.15;7.45;;;18.70;99.90;;;;;;4999445;28;20491;-95
2022/07/21 09:59:14;;;;;;;15.80;5.88;;;18.80;99.90;;;;;;5020128;28;20022;-94
2022/07/21 10:01:40;;;;;;;11.05;4.90;;;18.80;99.90;;;;;;5016535;28;20026;-93
2022/07/21 10:04:09;;;;;;;8.35;4.57;;;18.80;99.90;;;;;;5018987;28;20038;-94
2022/07/21 10:06:37;;;;;;;7.43;4.20;;;18.80;99.90;;;;;;5014876;28;20053;-94
2022/07/21 10:09:06;;;;;;;5.75;2.60;;;18.80;99.90;;;;;;5013989;28;20053;-93
2022/07/21 10:11:32;;;;;;;7.28;3.05;;;18.80;99.90;;;;;;5013503;28;20046;-94
2022/07/21 10:13:57;;;;;;;4.65;2.72;;;18.90;99.90;;;;;;4997315;28;20057;-92
2022/07/21 10:16:23;;;;;;;4.45;2.88;;;19.00;99.90;;;;;;5014961;28;20060;-95
2022/07/21 10:19:21;;;;;;;11.38;3.75;;;19.00;99.90;;;;;;4997642;28;20080;-94
2022/07/21 10:21:59;;;;;;;10.45;3.08;;;19.10;99.90;;;;;;5014200;28;20029;-94
2022/07/21 10:24:28;;;;;;;4.50;3.00;;;19.00;99.90;;;;;;5014473;28;20693;-93
2022/07/21 10:27:10;;;;;;;5.43;2.80;;;19.10;99.90;;;;;;5019068;28;20026;-95
2022/07/21 10:29:48;;;;;;;4.82;2.97;;;19.10;99.90;;;;;;5024316;28;20022;-94
2022/07/21 10:32:19;;;;;;;5.88;2.92;;;19.20;99.90;;;;;;5030310;28;20056;-93
2022/07/21 10:34:45;;;;;;;6.32;2.70;;;19.10;99.90;;;;;;5041542;28;20060;-94
2022/07/21 10:37:40;;;;;;;3.88;2.30;;;19.20;99.90;;;;;;5040956;28;20053;-92
2022/07/21 10:40:21;;;;;;;3.65;2.28;;;19.20;99.90;;;;;;5033758;28;20055;-92
2022/07/21 10:43:34;;;;;;;8.15;2.90;;;19.40;99.90;;;;;;5029824;28;20046;-95
2022/07/21 10:49:07;;;;;;;5.13;2.67;;;19.50;99.90;;;;;;4853653;29;20036;-95
2022/07/21 10:51:54;;;;;;;6.15;2.67;;;19.40;99.90;;;;;;4868347;29;20045;-95
2022/07/21 10:55:02;;;;;;;3.08;2.60;;;19.40;99.90;;;;;;4866669;29;20586;-94
2022/07/21 10:57:38;;;;;;;5.07;2.10;;;19.50;99.90;;;;;;4865205;29;20034;-95
2022/07/21 11:00:30;;;;;;;3.75;2.85;;;19.50;99.90;;;;;;4864904;29;20458;-96
2022/07/21 11:03:03;;;;;;;5.05;2.85;;;19.60;99.90;;;;;;4869770;29;20102;-94
2022/07/21 11:05:39;;;;;;;12.65;3.92;;;19.70;99.90;;;;;;4868453;29;20041;-94
2022/07/21 11:08:29;;;;;;;8.88;3.72;;;19.70;99.90;;;;;;4871596;29;20052;-96
2022/07/21 11:14:48;;;;;;;10.38;3.20;;;19.60;99.90;;;;;;4883782;29;20060;-94
2022/07/21 11:17:30;;;;;;;5.80;2.95;;;19.50;99.90;;;;;;4887024;29;20383;-96
2022/07/21 11:19:57;;;;;;;6.10;2.90;;;19.50;99.90;;;;;;4884664;29;20065;-95
2022/07/21 11:22:27;;;;;;;6.70;3.03;;;19.40;99.90;;;;;;4915112;28;20034;-95
2022/07/21 11:24:56;;;;;;;4.93;3.17;;;19.30;99.90;;;;;;5037334;28;20034;-95
2022/07/21 11:27:24;;;;;;;7.15;3.10;;;19.30;99.90;;;;;;5023260;28;20022;-96
2022/07/21 11:29:59;;;;;;;6.50;3.20;;;19.20;99.90;;;;;;5046975;28;20040;-96
2022/07/21 11:32:25;;;;;;;8.73;3.20;;;19.10;99.90;;;;;;5045492;28;20040;-95
2022/07/21 11:34:58;;;;;;;5.65;3.95;;;19.00;99.90;;;;;;5047450;28;20032;-96
2022/07/21 11:37:43;;;;;;;7.72;3.17;;;18.90;99.90;;;;;;5050763;28;20022;-96
2022/07/21 11:40:20;;;;;;;5.95;3.65;;;18.80;99.90;;;;;;5055181;28;20025;-94
2022/07/21 11:42:51;;;;;;;6.68;3.45;;;18.80;99.90;;;;;;5058055;28;20052;-91
2022/07/21 11:45:17;;;;;;;7.43;4.10;;;18.80;99.90;;;;;;5059903;28;20045;-93
2022/07/21 11:47:55;;;;;;;7.72;4.00;;;18.70;99.90;;;;;;5039787;28;20045;-92
2022/07/21 11:50:35;;;;;;;5.78;3.47;;;18.70;99.90;;;;;;5058197;28;20038;-90
2022/07/21 11:53:06;;;;;;;7.95;3.22;;;18.60;99.90;;;;;;5060170;28;20017;-91
2022/07/21 11:55:32;;;;;;;8.45;3.28;;;18.60;99.90;;;;;;5058039;28;20045;-94
2022/07/21 11:57:58;;;;;;;9.02;3.40;;;18.60;99.90;;;;;;5055205;28;20160;-95
2022/07/21 12:00:25;;;;;;;8.80;3.65;;;18.60;99.90;;;;;;5055929;28;20080;-94
2022/07/21 12:02:51;;;;;;;4.28;2.95;;;18.60;99.90;;;;;;5056149;28;20035;-93
2022/07/21 12:05:17;;;;;;;7.63;3.78;;;18.60;99.90;;;;;;5055924;28;20061;-92
2022/07/21 12:07:52;;;;;;;9.77;3.05;;;18.60;99.90;;;;;;5057502;28;20017;-92
2022/07/21 12:10:29;;;;;;;6.03;3.35;;;18.60;99.90;;;;;;5058876;28;20014;-92
2022/07/21 12:13:06;;;;;;;5.85;3.13;;;18.60;99.90;;;;;;5058785;28;20021;-92
2022/07/21 12:15:41;;;;;;;5.30;3.38;;;18.60;99.90;;;;;;5057315;28;20057;-94
2022/07/21 12:18:23;;;;;;;7.38;3.20;;;18.60;99.90;;;;;;5036332;28;20025;-93
2022/07/21 12:20:59;;;;;;;6.47;3.63;;;18.60;99.90;;;;;;5053673;28;20055;-93
2022/07/21 13:00:23;;;;;;;7.10;3.78;;;18.70;99.90;;;;;;5345219;23;20041;-94
2022/07/21 13:02:54;;;;;;;7.72;4.28;;;18.60;99.90;;;;;;5033180;28;20021;-93
2022/07/21 13:05:21;;;;;;;8.48;4.50;;;18.60;99.90;;;;;;5018165;28;20002;-94
2022/07/21 13:07:50;;;;;;;8.10;4.65;;;18.60;99.90;;;;;;5034995;28;20053;-95
2022/07/21 13:10:16;;;;;;;10.30;4.60;;;18.60;99.90;;;;;;5021398;28;20014;-94
2022/07/21 13:12:43;;;;;;;11.18;5.78;;;18.60;99.90;;;;;;5021418;28;20045;-95
2022/07/21 13:15:09;;;;;;;10.75;4.57;;;18.60;99.90;;;;;;5019814;28;20118;-96
2022/07/21 13:17:35;;;;;;;9.95;5.32;;;18.60;99.90;;;;;;5014396;28;20060;-96
2022/07/21 13:20:01;;;;;;;7.32;5.63;;;18.60;99.90;;;;;;5017824;28;20025;-95
2022/07/21 13:25:25;;;;;;;9.00;7.07;;;18.50;99.90;;;;;;5819195;23;20046;-93
2022/07/21 13:27:50;;;;;;;11.30;6.45;;;18.40;99.90;;;;;;5033363;28;20021;-92
2022/07/21 13:30:17;;;;;;;11.70;5.95;;;18.40;99.90;;;;;;5037922;28;20049;-90
2022/07/21 13:32:43;;;;;;;16.70;7.10;;;18.40;99.90;;;;;;5036831;28;20042;-93
2022/07/21 13:35:09;;;;;;;12.55;7.25;;;18.50;99.90;;;;;;5017509;28;20030;-94
2022/07/21 13:37:35;;;;;;;10.77;6.78;;;18.60;99.90;;;;;;5033468;28;20036;-94